sensor_id;sensor_type;location;lat;lon;timestamp;P1;durP1;ratioP1;P2;durP2;ratioP2
71187;SDS011;58893;53.130;8.158;2022-10-16T00:01:05;6.20;;;2.60;;
71187;SDS011;58893;53.130;8.158;2022-10-16T00:03:36;8.40;;;2.57;;
71187;SDS011;58893;53.130;8.158;2022-10-16T00:06:03;5.17;;;2.27;;
71187;SDS011;58893;53.130;8.158;2022-10-16T00:08:29;4.50;;;2.50;;
71187;SDS011;58893;53.130;8.158;2022-10-16T00:10:59;4.97;;;2.57;;
71187;SDS011;58893;53.130;8.158;2022-10-16T00:13:33;2.43;;;2.20;;
71187;SDS011;58893;53.130;8.158;2022-10-16T00:15:59;7.40;;;2.53;;
71187;SDS011;58893;53.130;8.158;2022-10-16T00:18:26;9.23;;;2.30;;
71187;SDS011;58893;53.130;8.158;2022-10-16T00:20:52;6.40;;;2.27;;
71187;SDS011;58893;53.130;8.158;2022-10-16T00:23:18;14.63;;;2.70;;
71187;SDS011;58893;53.130;8.158;2022-10-16T00:25:45;4.47;;;2.40;;
71187;SDS011;58893;53.130;8.158;2022-10-16T00:28:18;5.40;;;2.53;;
71187;SDS011;58893;53.130;8.158;2022-10-16T00:30:44;5.57;;;2.53;;
71187;SDS011;58893;53.130;8.158;2022-10-16T00:33:09;4.20;;;2.20;;
71187;SDS011;58893;53.130;8.158;2022-10-16T00:35:35;4.03;;;1.90;;
71187;SDS011;58893;53.130;8.158;2022-10-16T00:38:00;5.40;;;2.20;;
71187;SDS011;58893;53.130;8.158;2022-10-16T00:40:26;5.50;;;2.10;;
71187;SDS011;58893;53.130;8.158;2022-10-16T00:42:53;5.33;;;2.57;;
71187;SDS011;58893;53.130;8.158;2022-10-16T00:45:18;3.30;;;2.20;;
71187;SDS011;58893;53.130;8.158;2022-10-16T00:47:44;4.27;;;2.20;;
71187;SDS011;58893;53.130;8.158;2022-10-16T00:52:54;3.60;;;2.00;;
71187;SDS011;58893;53.130;8.158;2022-10-16T00:55:20;3.03;;;1.97;;
71187;SDS011;58893;53.130;8.158;2022-10-16T00:57:46;8.87;;;2.47;;
71187;SDS011;58893;53.130;8.158;2022-10-16T01:00:14;4.30;;;2.10;;
71187;SDS011;58893;53.130;8.158;2022-10-16T01:02:53;8.30;;;2.20;;
71187;SDS011;58893;53.130;8.158;2022-10-16T01:05:20;3.10;;;2.00;;
71187;SDS011;58893;53.130;8.158;2022-10-16T01:10:40;12.73;;;2.30;;
71187;SDS011;58893;53.130;8.158;2022-10-16T01:13:12;7.80;;;2.40;;
71187;SDS011;58893;53.130;8.158;2022-10-16T01:21:10;5.47;;;2.20;;
71187;SDS011;58893;53.130;8.158;2022-10-16T01:29:42;4.70;;;2.00;;
71187;SDS011;58893;53.130;8.158;2022-10-16T01:35:02;3.67;;;1.77;;
71187;SDS011;58893;53.130;8.158;2022-10-16T01:37:46;4.00;;;1.80;;
71187;SDS011;58893;53.130;8.158;2022-10-16T01:40:14;3.30;;;1.87;;
71187;SDS011;58893;53.130;8.158;2022-10-16T01:42:42;4.90;;;2.10;;
71187;SDS011;58893;53.130;8.158;2022-10-16T01:45:13;1.43;;;1.30;;
71187;SDS011;58893;53.130;8.158;2022-10-16T01:47:42;5.57;;;1.70;;
71187;SDS011;58893;53.130;8.158;2022-10-16T01:50:09;2.80;;;1.80;;
71187;SDS011;58893;53.130;8.158;2022-10-16T01:52:38;13.83;;;2.30;;
71187;SDS011;58893;53.130;8.158;2022-10-16T01:55:07;4.80;;;1.90;;
71187;SDS011;58893;53.130;8.158;2022-10-16T01:57:36;3.13;;;2.10;;
71187;SDS011;58893;53.130;8.158;2022-10-16T02:00:07;8.03;;;2.07;;
71187;SDS011;58893;53.130;8.158;2022-10-16T02:02:37;4.47;;;2.00;;
71187;SDS011;58893;53.130;8.158;2022-10-16T02:05:08;2.47;;;1.90;;
71187;SDS011;58893;53.130;8.158;2022-10-16T02:07:41;3.93;;;1.93;;
71187;SDS011;58893;53.130;8.158;2022-10-16T02:10:07;1.60;;;1.27;;
71187;SDS011;58893;53.130;8.158;2022-10-16T02:12:33;3.60;;;2.20;;
71187;SDS011;58893;53.130;8.158;2022-10-16T02:15:04;2.07;;;1.83;;
71187;SDS011;58893;53.130;8.158;2022-10-16T02:17:31;10.13;;;1.70;;
71187;SDS011;58893;53.130;8.158;2022-10-16T02:19:56;4.40;;;2.13;;
71187;SDS011;58893;53.130;8.158;2022-10-16T02:25:07;4.10;;;2.23;;
71187;SDS011;58893;53.130;8.158;2022-10-16T02:27:39;13.73;;;2.20;;
71187;SDS011;58893;53.130;8.158;2022-10-16T02:30:18;3.33;;;1.90;;
71187;SDS011;58893;53.130;8.158;2022-10-16T02:32:54;3.33;;;2.00;;
71187;SDS011;58893;53.130;8.158;2022-10-16T02:35:22;4.30;;;1.90;;
71187;SDS011;58893;53.130;8.158;2022-10-16T02:37:49;5.37;;;2.13;;
71187;SDS011;58893;53.130;8.158;2022-10-16T02:40:16;1.60;;;1.50;;
71187;SDS011;58893;53.130;8.158;2022-10-16T02:42:43;9.93;;;2.33;;
71187;SDS011;58893;53.130;8.158;2022-10-16T02:45:09;2.53;;;1.70;;
71187;SDS011;58893;53.130;8.158;2022-10-16T02:47:35;8.30;;;2.03;;
71187;SDS011;58893;53.130;8.158;2022-10-16T02:50:01;5.17;;;1.80;;
71187;SDS011;58893;53.130;8.158;2022-10-16T02:52:27;12.90;;;1.87;;
71187;SDS011;58893;53.130;8.158;2022-10-16T02:54:52;1.70;;;1.47;;
71187;SDS011;58893;53.130;8.158;2022-10-16T02:57:18;2.20;;;1.80;;
71187;SDS011;58893;53.130;8.158;2022-10-16T02:59:43;2.00;;;1.73;;
71187;SDS011;58893;53.130;8.158;2022-10-16T03:02:09;5.60;;;2.03;;
71187;SDS011;58893;53.130;8.158;2022-10-16T03:04:35;4.17;;;2.13;;
71187;SDS011;58893;53.130;8.158;2022-10-16T03:07:00;2.03;;;1.83;;
71187;SDS011;58893;53.130;8.158;2022-10-16T03:09:26;8.77;;;2.27;;
71187;SDS011;58893;53.130;8.158;2022-10-16T03:11:52;8.73;;;2.03;;
71187;SDS011;58893;53.130;8.158;2022-10-16T03:14:17;7.43;;;1.80;;
71187;SDS011;58893;53.130;8.158;2022-10-16T03:16:43;4.67;;;1.53;;
71187;SDS011;58893;53.130;8.158;2022-10-16T03:19:09;5.93;;;1.70;;
71187;SDS011;58893;53.130;8.158;2022-10-16T03:21:34;3.37;;;2.07;;
71187;SDS011;58893;53.130;8.158;2022-10-16T03:24:00;10.33;;;1.67;;
71187;SDS011;58893;53.130;8.158;2022-10-16T03:26:25;1.90;;;1.60;;
71187;SDS011;58893;53.130;8.158;2022-10-16T03:28:51;1.40;;;1.20;;
71187;SDS011;58893;53.130;8.158;2022-10-16T03:31:16;5.90;;;1.90;;
71187;SDS011;58893;53.130;8.158;2022-10-16T03:33:42;2.30;;;1.63;;
71187;SDS011;58893;53.130;8.158;2022-10-16T03:36:08;10.10;;;1.90;;
71187;SDS011;58893;53.130;8.158;2022-10-16T03:38:33;4.73;;;2.20;;
71187;SDS011;58893;53.130;8.158;2022-10-16T03:40:59;4.87;;;2.63;;
71187;SDS011;58893;53.130;8.158;2022-10-16T03:43:24;3.30;;;2.07;;
71187;SDS011;58893;53.130;8.158;2022-10-16T03:45:50;6.53;;;2.27;;
71187;SDS011;58893;53.130;8.158;2022-10-16T03:48:17;5.30;;;2.50;;
71187;SDS011;58893;53.130;8.158;2022-10-16T03:50:43;6.50;;;2.10;;
71187;SDS011;58893;53.130;8.158;2022-10-16T03:53:09;7.80;;;2.60;;
71187;SDS011;58893;53.130;8.158;2022-10-16T03:55:34;12.67;;;3.00;;
71187;SDS011;58893;53.130;8.158;2022-10-16T03:58:00;4.70;;;2.67;;
71187;SDS011;58893;53.130;8.158;2022-10-16T04:00:26;6.07;;;2.70;;
71187;SDS011;58893;53.130;8.158;2022-10-16T04:02:52;5.03;;;2.47;;
71187;SDS011;58893;53.130;8.158;2022-10-16T04:05:17;6.63;;;2.17;;
71187;SDS011;58893;53.130;8.158;2022-10-16T04:07:43;4.10;;;2.43;;
71187;SDS011;58893;53.130;8.158;2022-10-16T04:10:09;8.53;;;3.10;;
71187;SDS011;58893;53.130;8.158;2022-10-16T04:12:35;4.30;;;2.97;;
71187;SDS011;58893;53.130;8.158;2022-10-16T04:15:00;14.53;;;3.00;;
71187;SDS011;58893;53.130;8.158;2022-10-16T04:17:26;10.23;;;2.83;;
71187;SDS011;58893;53.130;8.158;2022-10-16T04:19:51;5.33;;;2.63;;
71187;SDS011;58893;53.130;8.158;2022-10-16T04:22:17;4.87;;;3.10;;
71187;SDS011;58893;53.130;8.158;2022-10-16T04:24:42;8.33;;;4.07;;
71187;SDS011;58893;53.130;8.158;2022-10-16T04:27:08;7.90;;;3.30;;
71187;SDS011;58893;53.130;8.158;2022-10-16T04:29:34;11.23;;;3.67;;
71187;SDS011;58893;53.130;8.158;2022-10-16T04:31:59;13.93;;;3.47;;
71187;SDS011;58893;53.130;8.158;2022-10-16T04:34:25;12.87;;;3.83;;
71187;SDS011;58893;53.130;8.158;2022-10-16T04:36:51;7.67;;;4.13;;
71187;SDS011;58893;53.130;8.158;2022-10-16T04:39:16;4.43;;;3.30;;
71187;SDS011;58893;53.130;8.158;2022-10-16T04:41:42;7.03;;;3.73;;
71187;SDS011;58893;53.130;8.158;2022-10-16T04:44:07;8.60;;;3.63;;
71187;SDS011;58893;53.130;8.158;2022-10-16T04:46:33;10.87;;;3.80;;
71187;SDS011;58893;53.130;8.158;2022-10-16T04:48:59;11.57;;;4.53;;
71187;SDS011;58893;53.130;8.158;2022-10-16T04:51:25;13.60;;;4.30;;
71187;SDS011;58893;53.130;8.158;2022-10-16T04:53:52;6.70;;;4.03;;
71187;SDS011;58893;53.130;8.158;2022-10-16T04:56:19;6.23;;;3.97;;
71187;SDS011;58893;53.130;8.158;2022-10-16T04:58:45;8.90;;;3.93;;
71187;SDS011;58893;53.130;8.158;2022-10-16T05:01:11;11.57;;;4.20;;
71187;SDS011;58893;53.130;8.158;2022-10-16T05:03:36;12.60;;;4.10;;
71187;SDS011;58893;53.130;8.158;2022-10-16T05:06:04;6.80;;;3.90;;
71187;SDS011;58893;53.130;8.158;2022-10-16T05:08:33;9.10;;;4.93;;
71187;SDS011;58893;53.130;8.158;2022-10-16T05:10:58;11.00;;;4.60;;
71187;SDS011;58893;53.130;8.158;2022-10-16T05:13:24;8.57;;;4.23;;
71187;SDS011;58893;53.130;8.158;2022-10-16T05:15:50;7.30;;;5.13;;
71187;SDS011;58893;53.130;8.158;2022-10-16T05:18:16;8.17;;;5.43;;
71187;SDS011;58893;53.130;8.158;2022-10-16T05:20:42;14.03;;;5.27;;
71187;SDS011;58893;53.130;8.158;2022-10-16T05:23:07;12.23;;;4.73;;
71187;SDS011;58893;53.130;8.158;2022-10-16T05:25:35;10.37;;;4.10;;
71187;SDS011;58893;53.130;8.158;2022-10-16T05:28:01;13.40;;;5.20;;
71187;SDS011;58893;53.130;8.158;2022-10-16T05:30:27;12.60;;;5.13;;
71187;SDS011;58893;53.130;8.158;2022-10-16T05:32:52;15.77;;;5.50;;
71187;SDS011;58893;53.130;8.158;2022-10-16T05:35:18;5.87;;;4.00;;
71187;SDS011;58893;53.130;8.158;2022-10-16T05:37:44;12.63;;;5.37;;
71187;SDS011;58893;53.130;8.158;2022-10-16T05:40:11;7.77;;;4.57;;
71187;SDS011;58893;53.130;8.158;2022-10-16T05:42:37;7.50;;;4.83;;
71187;SDS011;58893;53.130;8.158;2022-10-16T05:45:04;9.50;;;4.83;;
71187;SDS011;58893;53.130;8.158;2022-10-16T05:47:31;7.87;;;5.03;;
71187;SDS011;58893;53.130;8.158;2022-10-16T05:49:57;7.17;;;5.10;;
71187;SDS011;58893;53.130;8.158;2022-10-16T05:52:22;13.13;;;5.10;;
71187;SDS011;58893;53.130;8.158;2022-10-16T05:54:48;17.10;;;5.20;;
71187;SDS011;58893;53.130;8.158;2022-10-16T05:57:13;11.17;;;4.73;;
71187;SDS011;58893;53.130;8.158;2022-10-16T05:59:39;7.87;;;4.80;;
71187;SDS011;58893;53.130;8.158;2022-10-16T06:02:05;8.97;;;5.33;;
71187;SDS011;58893;53.130;8.158;2022-10-16T06:04:30;14.33;;;5.57;;
71187;SDS011;58893;53.130;8.158;2022-10-16T06:06:58;13.83;;;5.00;;
71187;SDS011;58893;53.130;8.158;2022-10-16T06:09:25;14.40;;;4.77;;
71187;SDS011;58893;53.130;8.158;2022-10-16T06:11:51;9.60;;;4.80;;
71187;SDS011;58893;53.130;8.158;2022-10-16T06:14:16;10.90;;;5.17;;
71187;SDS011;58893;53.130;8.158;2022-10-16T06:16:42;12.40;;;5.37;;
71187;SDS011;58893;53.130;8.158;2022-10-16T06:19:08;8.73;;;4.67;;
71187;SDS011;58893;53.130;8.158;2022-10-16T06:21:34;8.67;;;5.10;;
71187;SDS011;58893;53.130;8.158;2022-10-16T06:24:00;9.90;;;5.43;;
71187;SDS011;58893;53.130;8.158;2022-10-16T06:26:26;8.80;;;4.27;;
71187;SDS011;58893;53.130;8.158;2022-10-16T06:28:54;9.93;;;4.77;;
71187;SDS011;58893;53.130;8.158;2022-10-16T06:31:20;12.77;;;5.10;;
71187;SDS011;58893;53.130;8.158;2022-10-16T06:33:49;6.33;;;4.53;;
71187;SDS011;58893;53.130;8.158;2022-10-16T06:36:16;9.90;;;4.77;;
71187;SDS011;58893;53.130;8.158;2022-10-16T06:38:42;8.90;;;4.03;;
71187;SDS011;58893;53.130;8.158;2022-10-16T06:41:09;6.57;;;3.70;;
71187;SDS011;58893;53.130;8.158;2022-10-16T06:43:38;6.90;;;4.27;;
71187;SDS011;58893;53.130;8.158;2022-10-16T06:46:04;7.73;;;4.00;;
71187;SDS011;58893;53.130;8.158;2022-10-16T06:48:32;10.43;;;4.37;;
71187;SDS011;58893;53.130;8.158;2022-10-16T06:53:26;8.50;;;3.40;;
71187;SDS011;58893;53.130;8.158;2022-10-16T06:55:53;6.03;;;3.47;;
71187;SDS011;58893;53.130;8.158;2022-10-16T06:58:19;5.63;;;3.83;;
71187;SDS011;58893;53.130;8.158;2022-10-16T07:00:44;10.97;;;3.50;;
71187;SDS011;58893;53.130;8.158;2022-10-16T07:03:10;8.53;;;4.13;;
71187;SDS011;58893;53.130;8.158;2022-10-16T07:05:37;5.63;;;3.33;;
71187;SDS011;58893;53.130;8.158;2022-10-16T07:08:03;9.17;;;3.60;;
71187;SDS011;58893;53.130;8.158;2022-10-16T07:10:30;8.77;;;4.20;;
71187;SDS011;58893;53.130;8.158;2022-10-16T07:12:56;5.13;;;3.60;;
71187;SDS011;58893;53.130;8.158;2022-10-16T07:15:21;12.33;;;3.40;;
71187;SDS011;58893;53.130;8.158;2022-10-16T07:17:47;4.50;;;2.90;;
71187;SDS011;58893;53.130;8.158;2022-10-16T07:20:13;5.57;;;3.20;;
71187;SDS011;58893;53.130;8.158;2022-10-16T07:22:38;4.47;;;3.07;;
71187;SDS011;58893;53.130;8.158;2022-10-16T07:25:04;8.37;;;3.80;;
71187;SDS011;58893;53.130;8.158;2022-10-16T07:27:30;6.93;;;3.97;;
71187;SDS011;58893;53.130;8.158;2022-10-16T07:29:56;8.00;;;3.37;;
71187;SDS011;58893;53.130;8.158;2022-10-16T07:32:21;11.50;;;3.47;;
71187;SDS011;58893;53.130;8.158;2022-10-16T07:34:47;9.47;;;4.37;;
71187;SDS011;58893;53.130;8.158;2022-10-16T07:37:12;5.70;;;3.27;;
71187;SDS011;58893;53.130;8.158;2022-10-16T07:39:38;12.30;;;3.57;;
71187;SDS011;58893;53.130;8.158;2022-10-16T07:42:03;5.83;;;3.70;;
71187;SDS011;58893;53.130;8.158;2022-10-16T07:44:29;7.03;;;2.97;;
71187;SDS011;58893;53.130;8.158;2022-10-16T07:46:54;5.10;;;3.57;;
71187;SDS011;58893;53.130;8.158;2022-10-16T07:49:20;9.80;;;3.70;;
71187;SDS011;58893;53.130;8.158;2022-10-16T07:51:46;5.63;;;3.00;;
71187;SDS011;58893;53.130;8.158;2022-10-16T07:54:11;4.57;;;2.77;;
71187;SDS011;58893;53.130;8.158;2022-10-16T07:56:37;3.83;;;2.50;;
71187;SDS011;58893;53.130;8.158;2022-10-16T07:59:02;4.73;;;2.60;;
71187;SDS011;58893;53.130;8.158;2022-10-16T08:01:28;7.33;;;2.80;;
71187;SDS011;58893;53.130;8.158;2022-10-16T08:03:53;8.57;;;3.03;;
71187;SDS011;58893;53.130;8.158;2022-10-16T08:06:19;3.90;;;2.50;;
71187;SDS011;58893;53.130;8.158;2022-10-16T08:08:46;8.27;;;3.10;;
71187;SDS011;58893;53.130;8.158;2022-10-16T08:11:13;4.73;;;2.60;;
71187;SDS011;58893;53.130;8.158;2022-10-16T08:13:40;5.23;;;2.60;;
71187;SDS011;58893;53.130;8.158;2022-10-16T08:16:06;3.40;;;2.20;;
71187;SDS011;58893;53.130;8.158;2022-10-16T08:18:39;5.20;;;2.87;;
71187;SDS011;58893;53.130;8.158;2022-10-16T08:21:06;3.70;;;2.40;;
71187;SDS011;58893;53.130;8.158;2022-10-16T08:23:32;6.37;;;2.60;;
71187;SDS011;58893;53.130;8.158;2022-10-16T08:26:02;4.30;;;2.23;;
71187;SDS011;58893;53.130;8.158;2022-10-16T08:28:29;5.80;;;2.30;;
71187;SDS011;58893;53.130;8.158;2022-10-16T08:30:55;4.00;;;2.33;;
71187;SDS011;58893;53.130;8.158;2022-10-16T08:33:22;5.23;;;2.00;;
71187;SDS011;58893;53.130;8.158;2022-10-16T08:35:54;3.90;;;2.10;;
71187;SDS011;58893;53.130;8.158;2022-10-16T08:38:19;2.20;;;1.87;;
71187;SDS011;58893;53.130;8.158;2022-10-16T08:40:45;4.43;;;2.33;;
71187;SDS011;58893;53.130;8.158;2022-10-16T08:48:36;3.10;;;1.97;;
71187;SDS011;58893;53.130;8.158;2022-10-16T08:51:10;3.60;;;2.07;;
71187;SDS011;58893;53.130;8.158;2022-10-16T08:56:31;6.43;;;1.80;;
71187;SDS011;58893;53.130;8.158;2022-10-16T08:58:58;3.20;;;2.03;;
71187;SDS011;58893;53.130;8.158;2022-10-16T09:01:25;3.30;;;2.00;;
71187;SDS011;58893;53.130;8.158;2022-10-16T09:07:19;8.40;;;2.40;;
71187;SDS011;58893;53.130;8.158;2022-10-16T09:10:05;2.67;;;1.73;;
71187;SDS011;58893;53.130;8.158;2022-10-16T09:12:51;10.03;;;1.33;;
71187;SDS011;58893;53.130;8.158;2022-10-16T09:15:27;8.30;;;2.00;;
71187;SDS011;58893;53.130;8.158;2022-10-16T09:25:49;4.53;;;1.70;;
71187;SDS011;58893;53.130;8.158;2022-10-16T09:28:16;2.80;;;1.67;;
71187;SDS011;58893;53.130;8.158;2022-10-16T09:30:42;2.10;;;1.33;;
71187;SDS011;58893;53.130;8.158;2022-10-16T09:33:10;3.80;;;2.17;;
71187;SDS011;58893;53.130;8.158;2022-10-16T09:35:42;14.13;;;1.77;;
71187;SDS011;58893;53.130;8.158;2022-10-16T09:41:13;2.20;;;1.63;;
71187;SDS011;58893;53.130;8.158;2022-10-16T09:43:40;4.60;;;1.47;;
71187;SDS011;58893;53.130;8.158;2022-10-16T09:46:25;3.33;;;1.70;;
71187;SDS011;58893;53.130;8.158;2022-10-16T09:48:56;4.83;;;1.70;;
71187;SDS011;58893;53.130;8.158;2022-10-16T09:51:26;3.90;;;1.37;;
71187;SDS011;58893;53.130;8.158;2022-10-16T09:53:58;6.77;;;1.63;;
71187;SDS011;58893;53.130;8.158;2022-10-16T09:56:38;4.87;;;1.63;;
71187;SDS011;58893;53.130;8.158;2022-10-16T09:59:17;2.10;;;1.37;;
71187;SDS011;58893;53.130;8.158;2022-10-16T10:01:45;3.70;;;1.40;;
71187;SDS011;58893;53.130;8.158;2022-10-16T10:04:18;8.77;;;1.40;;
71187;SDS011;58893;53.130;8.158;2022-10-16T10:14:25;1.50;;;1.10;;
71187;SDS011;58893;53.130;8.158;2022-10-16T10:17:26;2.40;;;1.33;;
71187;SDS011;58893;53.130;8.158;2022-10-16T10:22:47;1.90;;;1.00;;
71187;SDS011;58893;53.130;8.158;2022-10-16T10:30:35;1.10;;;1.00;;
71187;SDS011;58893;53.130;8.158;2022-10-16T10:42:36;19.53;;;1.30;;
71187;SDS011;58893;53.130;8.158;2022-10-16T10:50:30;5.97;;;1.20;;
71187;SDS011;58893;53.130;8.158;2022-10-16T10:53:11;3.70;;;1.20;;
71187;SDS011;58893;53.130;8.158;2022-10-16T10:56:40;5.57;;;1.30;;
71187;SDS011;58893;53.130;8.158;2022-10-16T10:59:07;5.60;;;1.20;;
71187;SDS011;58893;53.130;8.158;2022-10-16T11:01:47;3.03;;;1.30;;
71187;SDS011;58893;53.130;8.158;2022-10-16T11:04:42;6.27;;;1.43;;
71187;SDS011;58893;53.130;8.158;2022-10-16T11:07:21;5.50;;;1.30;;
71187;SDS011;58893;53.130;8.158;2022-10-16T11:09:57;2.47;;;1.40;;
71187;SDS011;58893;53.130;8.158;2022-10-16T11:12:29;21.73;;;1.97;;
71187;SDS011;58893;53.130;8.158;2022-10-16T11:15:04;12.57;;;1.90;;
71187;SDS011;58893;53.130;8.158;2022-10-16T11:17:40;3.90;;;1.10;;
71187;SDS011;58893;53.130;8.158;2022-10-16T11:20:13;5.50;;;1.30;;
71187;SDS011;58893;53.130;8.158;2022-10-16T11:25:18;4.60;;;1.27;;
71187;SDS011;58893;53.130;8.158;2022-10-16T11:30:31;3.80;;;1.50;;
71187;SDS011;58893;53.130;8.158;2022-10-16T11:38:56;2.97;;;1.17;;
71187;SDS011;58893;53.130;8.158;2022-10-16T11:44:12;6.33;;;1.13;;
71187;SDS011;58893;53.130;8.158;2022-10-16T11:46:42;4.97;;;1.80;;
71187;SDS011;58893;53.130;8.158;2022-10-16T11:49:16;6.50;;;1.20;;
71187;SDS011;58893;53.130;8.158;2022-10-16T11:51:48;14.50;;;1.67;;
71187;SDS011;58893;53.130;8.158;2022-10-16T11:54:43;3.73;;;1.23;;
71187;SDS011;58893;53.130;8.158;2022-10-16T11:57:27;23.43;;;1.70;;
71187;SDS011;58893;53.130;8.158;2022-10-16T12:00:07;10.63;;;1.60;;
71187;SDS011;58893;53.130;8.158;2022-10-16T12:02:48;8.13;;;1.23;;
71187;SDS011;58893;53.130;8.158;2022-10-16T12:05:24;7.87;;;1.40;;
71187;SDS011;58893;53.130;8.158;2022-10-16T12:08:12;9.33;;;1.60;;
71187;SDS011;58893;53.130;8.158;2022-10-16T12:10:40;9.60;;;1.40;;
71187;SDS011;58893;53.130;8.158;2022-10-16T12:19:02;14.30;;;2.17;;
71187;SDS011;58893;53.130;8.158;2022-10-16T12:21:34;3.33;;;1.27;;
71187;SDS011;58893;53.130;8.158;2022-10-16T12:24:00;9.53;;;1.50;;
71187;SDS011;58893;53.130;8.158;2022-10-16T12:26:29;11.43;;;1.70;;
71187;SDS011;58893;53.130;8.158;2022-10-16T12:29:12;6.13;;;1.43;;
71187;SDS011;58893;53.130;8.158;2022-10-16T12:31:44;3.50;;;1.03;;
71187;SDS011;58893;53.130;8.158;2022-10-16T12:34:28;10.83;;;1.53;;
71187;SDS011;58893;53.130;8.158;2022-10-16T12:39:48;7.20;;;1.40;;
71187;SDS011;58893;53.130;8.158;2022-10-16T12:44:52;6.60;;;1.60;;
71187;SDS011;58893;53.130;8.158;2022-10-16T12:49:49;10.63;;;1.87;;
71187;SDS011;58893;53.130;8.158;2022-10-16T12:54:59;3.83;;;1.47;;
71187;SDS011;58893;53.130;8.158;2022-10-16T12:57:35;7.60;;;1.70;;
71187;SDS011;58893;53.130;8.158;2022-10-16T13:02:43;7.00;;;1.97;;
71187;SDS011;58893;53.130;8.158;2022-10-16T13:07:53;10.83;;;1.03;;
71187;SDS011;58893;53.130;8.158;2022-10-16T13:26:56;7.87;;;1.63;;
71187;SDS011;58893;53.130;8.158;2022-10-16T13:29:31;6.43;;;2.20;;
71187;SDS011;58893;53.130;8.158;2022-10-16T13:31:58;6.87;;;2.33;;
71187;SDS011;58893;53.130;8.158;2022-10-16T13:34:25;10.27;;;1.40;;
71187;SDS011;58893;53.130;8.158;2022-10-16T13:36:53;7.03;;;1.40;;
71187;SDS011;58893;53.130;8.158;2022-10-16T13:44:25;7.10;;;1.50;;
71187;SDS011;58893;53.130;8.158;2022-10-16T13:47:01;4.27;;;1.40;;
71187;SDS011;58893;53.130;8.158;2022-10-16T13:49:27;8.73;;;4.10;;
71187;SDS011;58893;53.130;8.158;2022-10-16T13:51:54;4.50;;;2.07;;
71187;SDS011;58893;53.130;8.158;2022-10-16T13:54:25;4.30;;;1.50;;
71187;SDS011;58893;53.130;8.158;2022-10-16T13:56:53;9.70;;;1.80;;
71187;SDS011;58893;53.130;8.158;2022-10-16T13:59:53;4.43;;;1.40;;
71187;SDS011;58893;53.130;8.158;2022-10-16T14:02:31;6.20;;;1.30;;
71187;SDS011;58893;53.130;8.158;2022-10-16T14:04:59;5.83;;;1.40;;
71187;SDS011;58893;53.130;8.158;2022-10-16T14:07:33;8.10;;;1.60;;
71187;SDS011;58893;53.130;8.158;2022-10-16T14:10:04;2.87;;;1.20;;
71187;SDS011;58893;53.130;8.158;2022-10-16T14:12:31;2.80;;;1.30;;
71187;SDS011;58893;53.130;8.158;2022-10-16T14:14:57;6.73;;;1.83;;
71187;SDS011;58893;53.130;8.158;2022-10-16T14:19:51;3.37;;;1.30;;
71187;SDS011;58893;53.130;8.158;2022-10-16T14:30:52;7.57;;;1.30;;
71187;SDS011;58893;53.130;8.158;2022-10-16T14:33:31;10.80;;;2.37;;
71187;SDS011;58893;53.130;8.158;2022-10-16T14:38:38;3.50;;;1.20;;
71187;SDS011;58893;53.130;8.158;2022-10-16T14:41:05;2.27;;;1.10;;
71187;SDS011;58893;53.130;8.158;2022-10-16T14:43:41;3.27;;;1.00;;
71187;SDS011;58893;53.130;8.158;2022-10-16T14:46:14;4.93;;;1.73;;
71187;SDS011;58893;53.130;8.158;2022-10-16T14:48:43;8.17;;;1.30;;
71187;SDS011;58893;53.130;8.158;2022-10-16T14:51:15;4.93;;;1.40;;
71187;SDS011;58893;53.130;8.158;2022-10-16T14:53:42;5.30;;;1.43;;
71187;SDS011;58893;53.130;8.158;2022-10-16T14:56:08;13.63;;;1.93;;
71187;SDS011;58893;53.130;8.158;2022-10-16T14:58:40;10.33;;;1.93;;
71187;SDS011;58893;53.130;8.158;2022-10-16T15:01:07;8.73;;;1.53;;
71187;SDS011;58893;53.130;8.158;2022-10-16T15:03:35;12.63;;;1.60;;
71187;SDS011;58893;53.130;8.158;2022-10-16T15:06:01;7.60;;;1.87;;
71187;SDS011;58893;53.130;8.158;2022-10-16T15:08:27;6.60;;;1.27;;
71187;SDS011;58893;53.130;8.158;2022-10-16T15:10:52;7.10;;;1.30;;
71187;SDS011;58893;53.130;8.158;2022-10-16T15:13:18;4.77;;;1.40;;
71187;SDS011;58893;53.130;8.158;2022-10-16T15:15:45;6.00;;;1.70;;
71187;SDS011;58893;53.130;8.158;2022-10-16T15:18:11;7.00;;;1.80;;
71187;SDS011;58893;53.130;8.158;2022-10-16T15:20:39;9.17;;;1.37;;
71187;SDS011;58893;53.130;8.158;2022-10-16T15:23:09;7.40;;;1.40;;
71187;SDS011;58893;53.130;8.158;2022-10-16T15:25:47;8.00;;;1.77;;
71187;SDS011;58893;53.130;8.158;2022-10-16T15:28:31;8.80;;;1.97;;
71187;SDS011;58893;53.130;8.158;2022-10-16T15:30:57;7.07;;;1.63;;
71187;SDS011;58893;53.130;8.158;2022-10-16T15:33:23;3.50;;;1.63;;
71187;SDS011;58893;53.130;8.158;2022-10-16T15:35:53;7.37;;;1.53;;
71187;SDS011;58893;53.130;8.158;2022-10-16T15:38:19;3.27;;;1.47;;
71187;SDS011;58893;53.130;8.158;2022-10-16T15:40:46;4.30;;;1.67;;
71187;SDS011;58893;53.130;8.158;2022-10-16T15:43:13;3.83;;;1.23;;
71187;SDS011;58893;53.130;8.158;2022-10-16T15:45:39;4.87;;;1.63;;
71187;SDS011;58893;53.130;8.158;2022-10-16T15:48:05;7.47;;;1.13;;
71187;SDS011;58893;53.130;8.158;2022-10-16T15:50:31;7.37;;;1.87;;
71187;SDS011;58893;53.130;8.158;2022-10-16T15:52:57;10.57;;;1.83;;
71187;SDS011;58893;53.130;8.158;2022-10-16T15:55:23;12.20;;;1.77;;
71187;SDS011;58893;53.130;8.158;2022-10-16T15:57:49;5.03;;;1.43;;
71187;SDS011;58893;53.130;8.158;2022-10-16T16:00:15;6.73;;;1.80;;
71187;SDS011;58893;53.130;8.158;2022-10-16T16:02:48;7.67;;;1.97;;
71187;SDS011;58893;53.130;8.158;2022-10-16T16:05:16;7.67;;;2.07;;
71187;SDS011;58893;53.130;8.158;2022-10-16T16:07:41;8.50;;;1.67;;
71187;SDS011;58893;53.130;8.158;2022-10-16T16:10:08;6.23;;;1.70;;
71187;SDS011;58893;53.130;8.158;2022-10-16T16:12:38;6.30;;;1.50;;
71187;SDS011;58893;53.130;8.158;2022-10-16T16:15:08;3.47;;;1.50;;
71187;SDS011;58893;53.130;8.158;2022-10-16T16:17:34;8.70;;;1.90;;
71187;SDS011;58893;53.130;8.158;2022-10-16T16:20:01;3.43;;;1.47;;
71187;SDS011;58893;53.130;8.158;2022-10-16T16:22:28;1.57;;;1.43;;
71187;SDS011;58893;53.130;8.158;2022-10-16T16:24:54;7.73;;;2.20;;
71187;SDS011;58893;53.130;8.158;2022-10-16T16:27:19;5.90;;;1.70;;
71187;SDS011;58893;53.130;8.158;2022-10-16T16:29:45;16.87;;;2.00;;
71187;SDS011;58893;53.130;8.158;2022-10-16T16:32:14;10.27;;;2.00;;
71187;SDS011;58893;53.130;8.158;2022-10-16T16:34:39;15.33;;;1.67;;
71187;SDS011;58893;53.130;8.158;2022-10-16T16:37:05;8.27;;;1.40;;
71187;SDS011;58893;53.130;8.158;2022-10-16T16:39:31;9.97;;;1.93;;
71187;SDS011;58893;53.130;8.158;2022-10-16T16:41:57;10.40;;;1.90;;
71187;SDS011;58893;53.130;8.158;2022-10-16T16:44:23;3.70;;;1.50;;
71187;SDS011;58893;53.130;8.158;2022-10-16T16:46:49;5.37;;;1.80;;
71187;SDS011;58893;53.130;8.158;2022-10-16T16:49:15;5.83;;;1.93;;
71187;SDS011;58893;53.130;8.158;2022-10-16T16:51:40;7.70;;;1.43;;
71187;SDS011;58893;53.130;8.158;2022-10-16T16:54:07;11.33;;;1.77;;
71187;SDS011;58893;53.130;8.158;2022-10-16T16:56:34;11.57;;;1.73;;
71187;SDS011;58893;53.130;8.158;2022-10-16T16:59:00;5.53;;;1.50;;
71187;SDS011;58893;53.130;8.158;2022-10-16T17:01:26;3.90;;;1.43;;
71187;SDS011;58893;53.130;8.158;2022-10-16T17:03:53;4.33;;;1.27;;
71187;SDS011;58893;53.130;8.158;2022-10-16T17:06:22;10.60;;;2.10;;
71187;SDS011;58893;53.130;8.158;2022-10-16T17:08:49;7.13;;;1.60;;
71187;SDS011;58893;53.130;8.158;2022-10-16T17:11:16;5.40;;;2.53;;
71187;SDS011;58893;53.130;8.158;2022-10-16T17:13:43;5.77;;;1.80;;
71187;SDS011;58893;53.130;8.158;2022-10-16T17:16:09;6.50;;;2.40;;
71187;SDS011;58893;53.130;8.158;2022-10-16T17:18:36;3.73;;;2.30;;
71187;SDS011;58893;53.130;8.158;2022-10-16T17:21:05;6.20;;;2.20;;
71187;SDS011;58893;53.130;8.158;2022-10-16T17:23:32;4.93;;;2.60;;